ADDS METAR Data INFO
IDs: Format: Raw Decoded Include TAF

Data at: 0642 UTC 23 Feb 2018

KDLH 230625Z 10008KT 1SM R09/P6000FT -SN BR FEW006 OVC014 M05/M07 A3021 RMK AO2 P0003 T10501067
KDLH 230600Z 09007KT 3/4SM R09/P6000FT -SN BR FEW006 OVC028 M06/M07 A3021 RMK AO2 SFC VIS 1 1/4 P0000 T10561072
KDLH 230555Z 08008KT 3/4SM R09/P6000FT -SN BR OVC034 M06/M07 A3021 RMK AO2 SFC VIS 1 1/4 SLP260 P0002 60008 T10561072 11056 21067 410501217 58023
KDLH 230547Z 09007KT 3/4SM R09/P6000FT -SN BR BKN034 OVC055 M06/M07 A3022 RMK AO2 SFC VIS 1 1/4 P0002 T10561072
KDLH 230455Z 08007KT 3/4SM R09/P6000FT -SN BR VV017 M06/M08 A3025 RMK AO2 SFC VIS 1 SLP273 P0003 T10561078
KDLH 230450Z 09007KT 3/4SM R09/P6000FT -SN BR VV019 M06/M08 A3026 RMK AO2 SFC VIS 1 P0002
KDLH 230426Z 10009KT 1SM R09/P6000FT -SN BR OVC025 M06/M08 A3026 RMK AO2 SFC VIS 1 1/2 P0001 T10611078
KDLH 230402Z 09009KT 1 1/2SM -SN BR OVC035 M06/M08 A3028 RMK AO2 P0000 T10611078
KDLH 230355Z 09009KT 1/2SM R09/P6000FT -SN BR OVC037 M06/M08 A3028 RMK AO2 SFC VIS 1 1/2 SLP286 P0003 T10611078
KDLH 230353Z 10008KT 1/2SM R09/P6000FT -SN BR OVC035 M06/M08 A3029 RMK AO2 SFC VIS 1 1/2 P0003
KDLH 230326Z 10008KT 1/2SM R09/P6000FT -SN BR VV018 M06/M08 A3030 RMK AO2 SFC VIS 3/4 P0002 T10611083
KDLH 230306Z 11008KT 1/2SM R09/4500VP6000FT SN VV014 M06/M09 A3031 RMK AO2 P0001 T10611094
KDLH 230255Z 12009KT 1SM R09/P6000FT -SN OVC026 M06/M10 A3032 RMK AO2 SNB44 SLP300 P0000 60000 T10611100 57028
KDLH 230155Z 09007KT 10SM FEW046 OVC070 M06/M11 A3034 RMK AO2 SLP312 T10611106
KDLH 230055Z 11006KT 10SM OVC055 M07/M11 A3038 RMK AO2 SLP325 T10671111
KDLH 222355Z 10006KT 10SM OVC043 M07/M11 A3040 RMK AO2 SLP333 T10671111 11050 21072 58008
KDLH 222255Z 13008KT 10SM SCT032 OVC045 M07/M13 A3042 RMK AO2 SLP340 T10671128
KDLH 222155Z 11006KT 10SM FEW039 BKN060 OVC075 M06/M13 A3041 RMK AO2 SLP336 T10561133
KDLH 222055Z 14005KT 10SM FEW033 OVC080 M05/M14 A3043 RMK AO2 SLP341 T10501144 56028
KDLH 221955Z 18006KT 10SM BKN095 M06/M16 A3045 RMK AO2 SLP344 T10561161
KDLH 221855Z 17003KT 10SM FEW100 M07/M16 A3048 RMK AO2 SLP355 T10671156
KDLH 221755Z 17007KT 10SM CLR M07/M17 A3052 RMK AO2 SLP369 T10721167 11072 21206 58008
KDLH 221655Z 18006KT 10SM CLR M08/M16 A3054 RMK AO2 SLP377 T10831156
KDLH 221555Z 16005KT 10SM CLR M09/M16 A3055 RMK AO2 SLP380 T10941161
KDLH 221455Z 00000KT 10SM CLR M14/M17 A3054 RMK AO2 SLP380 T11391167 58005
KDLH 221355Z 00000KT 10SM CLR M19/M20 A3055 RMK AO2 SLP385 T11891200
KDLH 221255Z 00000KT 10SM CLR M19/M22 A3056 RMK AO2 SLP388 T11941222
KDLH 221155Z 00000KT 10SM CLR M19/M22 A3056 RMK AO2 SLP386 T11891222 11133 21217 53002
KDLH 221055Z 00000KT 10SM CLR M20/M23 A3055 RMK AO2 SLP382 T12001228
KDLH 220955Z 29003KT 10SM CLR M19/M21 A3054 RMK AO2 SLP379 T11891211
KDLH 220855Z 00000KT 10SM CLR M18/M22 A3055 RMK AO2 SLP383 T11831222 58008
KDLH 220755Z 33004KT 10SM CLR M13/M19 A3056 RMK AO2 SLP383 T11331189
KDLH 220655Z 28006KT 10SM CLR M13/M19 A3057 RMK AO2 SLP387 T11331189
KDLH 220555Z 25008KT 10SM CLR M14/M20 A3057 RMK AO2 SLP391 T11441200 11072 21144 410501206 51009
KDLH 220455Z 23007KT 10SM CLR M13/M19 A3057 RMK AO2 SLP390 T11281189
KDLH 220355Z 23007KT 10SM CLR M12/M19 A3056 RMK AO2 SLP386 T11171189
KDLH 212355Z 22007KT 10SM CLR M07/M16 A3051 RMK AO2 SLP370 T10721161 11050 21094 51007
KDLH 212255Z 24012KT 10SM CLR M06/M16 A3051 RMK AO2 SLP368 T10561161
KDLH 212155Z 25009KT 10SM CLR M06/M16 A3050 RMK AO2 SLP365 T10561156
KDLH 212055Z 28012KT 10SM CLR M06/M16 A3049 RMK AO2 SLP360 T10561156 50004
KDLH 211955Z 25011KT 10SM CLR M06/M15 A3049 RMK AO2 SLP361 T10611150
KDLH 211855Z 26013KT 10SM CLR M07/M15 A3048 RMK AO2 SLP357 T10721150